Time;durP1;ratioP1;P1;durP2;ratioP2;P2;SDS_P1;SDS_P2;PMS_P1;PMS_P2;Temp;Humidity;BMP_temperature;BMP_pressure;BME280_temperature;BME280_humidity;BME280_pressure;Samples;Min_cycle;Max_cycle;Signal;HPM_P1;HPM_P2
2022/07/02 00:01:03;;;;;;;2.83;1.92;;;;;;;23.68;35.50;101809.91;5044152;28;20107;-80
2022/07/02 00:03:32;;;;;;;3.88;1.95;;;;;;;23.69;35.19;101815.28;5054680;28;20049;-80
2022/07/02 00:06:01;;;;;;;3.72;1.88;;;;;;;23.67;35.14;101817.34;5063978;28;20120;-81
2022/07/02 00:08:28;;;;;;;3.83;1.90;;;;;;;23.66;34.91;101817.50;5050574;28;20467;-80
2022/07/02 00:10:57;;;;;;;3.50;1.80;;;;;;;23.65;35.39;101813.88;5047334;28;20140;-81
2022/07/02 00:13:25;;;;;;;2.92;1.63;;;;;;;23.64;35.29;101811.25;5063430;28;20052;-80
2022/07/02 00:15:52;;;;;;;3.78;2.00;;;;;;;23.61;35.55;101808.81;5056711;28;20052;-80
2022/07/02 00:18:20;;;;;;;3.00;1.90;;;;;;;23.60;35.38;101807.94;5057210;28;20135;-80
2022/07/02 00:20:47;;;;;;;2.58;1.80;;;;;;;23.58;35.23;101796.16;5058176;28;20080;-80
2022/07/02 00:23:15;;;;;;;2.90;1.83;;;;;;;23.58;34.94;101800.81;5060621;28;20079;-80
2022/07/02 00:25:46;;;;;;;3.05;1.70;;;;;;;23.57;35.22;101799.06;5061975;28;20137;-80
2022/07/02 00:28:15;;;;;;;4.10;1.90;;;;;;;23.57;35.33;101797.19;5050839;28;20135;-81
2022/07/02 00:30:47;;;;;;;3.60;2.28;;;;;;;23.56;35.87;101806.53;5050843;28;20052;-80
2022/07/02 00:33:14;;;;;;;3.53;2.05;;;;;;;23.52;35.41;101805.13;5055574;28;20143;-80
2022/07/02 00:35:42;;;;;;;3.95;1.70;;;;;;;23.49;35.22;101803.53;5071773;28;20128;-80
2022/07/02 00:38:09;;;;;;;3.75;2.05;;;;;;;23.47;35.49;101807.50;5063689;28;20049;-81
2022/07/02 00:40:37;;;;;;;3.10;2.03;;;;;;;23.45;35.13;101815.97;5059234;28;20080;-81
2022/07/02 00:43:04;;;;;;;3.53;2.03;;;;;;;23.42;35.51;101810.75;5044574;28;20136;-81
2022/07/02 00:45:33;;;;;;;4.22;1.98;;;;;;;23.43;35.61;101804.16;5060567;28;20077;-81
2022/07/02 00:48:02;;;;;;;3.67;2.20;;;;;;;23.41;35.54;101813.66;5054992;28;20076;-81
2022/07/02 00:50:29;;;;;;;3.80;2.13;;;;;;;23.37;35.66;101812.28;5065728;28;20049;-81
2022/07/02 00:52:58;;;;;;;4.35;2.25;;;;;;;23.38;36.07;101808.47;5061238;28;20075;-81
2022/07/02 00:55:25;;;;;;;3.53;1.98;;;;;;;23.31;35.59;101804.59;5064110;28;20052;-81
2022/07/02 00:57:52;;;;;;;4.82;2.40;;;;;;;23.28;35.80;101800.25;5050454;28;20480;-81
2022/07/02 01:00:19;;;;;;;3.58;2.00;;;;;;;23.27;35.93;101805.97;5048880;28;20048;-81
2022/07/02 01:02:47;;;;;;;3.20;2.10;;;;;;;23.24;36.07;101803.50;5046862;28;20048;-81
2022/07/02 01:05:15;;;;;;;4.03;2.17;;;;;;;23.22;36.08;101795.38;5066644;28;20128;-81
2022/07/02 01:10:16;;;;;;;3.78;2.20;;;;;;;23.21;36.45;101799.19;5055433;28;20080;-81
2022/07/02 01:10:45;;;;;;;3.20;2.22;;;;;;;23.17;36.56;101797.75;5044846;28;20081;-81
2022/07/02 01:13:12;;;;;;;3.70;2.33;;;;;;;23.13;35.97;101794.44;5058883;28;20519;-81
2022/07/02 01:15:40;;;;;;;3.38;2.05;;;;;;;23.11;36.27;101793.72;5051792;28;20049;-80
2022/07/02 01:18:07;;;;;;;3.50;2.15;;;;;;;23.08;36.19;101794.03;5056777;28;20068;-81
2022/07/02 01:20:34;;;;;;;3.92;2.00;;;;;;;23.05;36.12;101794.38;5062648;28;20053;-81
2022/07/02 01:23:02;;;;;;;4.70;2.20;;;;;;;23.04;36.12;101791.75;5078779;28;20098;-81
2022/07/02 01:25:28;;;;;;;4.13;2.10;;;;;;;23.01;36.17;101787.41;5065044;28;20131;-81
2022/07/02 01:27:55;;;;;;;4.85;2.33;;;;;;;23.00;36.48;101787.56;5055118;28;20397;-81
2022/07/02 01:30:22;;;;;;;3.83;2.22;;;;;;;22.99;36.21;101791.34;5055418;28;20085;-81
2022/07/02 01:32:48;;;;;;;8.13;2.30;;;;;;;22.96;36.22;101795.34;5054348;28;20091;-81
2022/07/02 01:35:15;;;;;;;4.10;2.20;;;;;;;22.96;36.58;101791.69;5049540;28;20041;-81
2022/07/02 01:37:42;;;;;;;4.00;2.20;;;;;;;22.92;36.25;101780.06;5050201;28;20110;-81
2022/07/02 01:40:09;;;;;;;3.88;2.00;;;;;;;22.91;36.55;101789.38;5046728;28;20041;-81
2022/07/02 01:42:37;;;;;;;3.25;2.00;;;;;;;22.89;36.56;101787.84;5059075;28;20048;-81
2022/07/02 01:45:05;;;;;;;4.03;2.10;;;;;;;22.87;36.20;101787.13;5063007;28;20087;-81
2022/07/02 01:47:32;;;;;;;3.28;2.10;;;;;;;22.85;36.21;101786.41;5061489;28;20068;-81
2022/07/02 01:49:58;;;;;;;2.97;2.00;;;;;;;22.84;36.39;101795.72;5044131;28;20130;-81
2022/07/02 01:52:28;;;;;;;3.30;2.40;;;;;;;22.85;36.39;101797.47;5047642;28;20113;-81
2022/07/02 01:54:54;;;;;;;4.07;2.28;;;;;;;22.81;36.22;101798.84;5048441;28;20106;-81
2022/07/02 01:57:21;;;;;;;3.83;2.25;;;;;;;22.79;36.50;101799.00;5061736;28;20079;-81
2022/07/02 01:59:48;;;;;;;6.20;2.40;;;;;;;22.78;36.31;101802.78;5060431;28;20725;-81
2022/07/02 02:02:15;;;;;;;4.65;2.28;;;;;;;22.75;36.39;101800.31;5053191;28;20617;-81
2022/07/02 02:04:42;;;;;;;3.42;1.90;;;;;;;22.73;36.02;101802.38;5057505;28;20045;-81
2022/07/02 02:07:09;;;;;;;4.25;1.90;;;;;;;22.70;36.51;101797.13;5067352;28;20037;-81
2022/07/02 02:09:36;;;;;;;4.38;2.08;;;;;;;22.68;36.18;101799.19;5049576;28;20054;-81
2022/07/02 02:12:03;;;;;;;4.82;2.22;;;;;;;22.65;36.04;101805.91;5067765;28;20051;-81
2022/07/02 02:14:30;;;;;;;4.25;2.05;;;;;;;22.62;36.45;101800.69;5057922;28;20072;-81
2022/07/02 02:16:56;;;;;;;3.55;2.08;;;;;;;22.60;36.17;101799.97;5052957;28;20072;-81
2022/07/02 02:19:23;;;;;;;4.13;2.15;;;;;;;22.57;36.07;101800.28;5052465;28;20049;-81
2022/07/02 02:21:49;;;;;;;2.95;1.88;;;;;;;22.55;35.93;101805.13;5052552;28;20081;-81
2022/07/02 02:24:16;;;;;;;2.83;1.77;;;;;;;22.53;36.05;101798.00;5049265;28;20046;-81
2022/07/02 02:26:43;;;;;;;3.00;1.83;;;;;;;22.51;35.82;101800.03;5052912;28;20072;-81
2022/07/02 02:29:09;;;;;;;3.15;2.13;;;;;;;22.48;35.98;101800.38;5051635;28;20045;-81
2022/07/02 02:31:36;;;;;;;3.58;2.00;;;;;;;22.46;36.07;101807.97;5043295;28;20049;-81
2022/07/02 02:34:03;;;;;;;3.20;2.08;;;;;;;22.42;36.27;101800.97;5046820;28;20045;-81
2022/07/02 02:36:29;;;;;;;4.07;2.30;;;;;;;22.38;36.03;101800.44;5056180;28;20118;-81
2022/07/02 02:38:56;;;;;;;3.92;2.10;;;;;;;22.35;35.92;101800.75;5050007;28;20491;-81
2022/07/02 02:41:23;;;;;;;2.85;1.95;;;;;;;22.32;36.09;101803.81;5057836;28;20080;-81
2022/07/02 02:43:49;;;;;;;2.67;1.80;;;;;;;22.29;35.98;101802.25;5049554;28;20385;-81
2022/07/02 02:46:16;;;;;;;5.03;2.33;;;;;;;22.27;36.22;101800.66;5064091;28;20136;-81
2022/07/02 02:48:43;;;;;;;3.28;2.10;;;;;;;22.25;36.43;101805.47;5051865;28;20522;-81
2022/07/02 02:51:15;;;;;;;3.28;2.05;;;;;;;22.27;36.46;101808.94;5048192;28;20048;-81
2022/07/02 02:53:42;;;;;;;3.40;2.15;;;;;;;22.22;36.37;101800.25;5062107;28;20126;-81
2022/07/02 02:56:10;;;;;;;2.70;1.98;;;;;;;22.22;36.42;101803.91;5063279;28;20080;-81
2022/07/02 02:58:37;;;;;;;3.35;2.13;;;;;;;22.20;36.61;101808.72;5057328;28;20049;-81
2022/07/02 03:01:04;;;;;;;3.22;2.20;;;;;;;22.20;36.18;101814.25;5043065;28;20049;-81
2022/07/02 03:03:31;;;;;;;3.47;1.98;;;;;;;22.19;36.55;101817.16;5064614;28;20095;-81
2022/07/02 03:05:58;;;;;;;3.10;2.08;;;;;;;22.18;36.31;101816.28;5053078;28;20056;-81
2022/07/02 03:08:25;;;;;;;3.40;2.40;;;;;;;22.17;36.44;101822.84;5050879;28;20079;-81
2022/07/02 03:10:51;;;;;;;3.05;1.92;;;;;;;22.15;36.52;101819.38;5050278;28;20216;-80
2022/07/02 03:13:18;;;;;;;5.13;2.20;;;;;;;22.13;36.65;101815.00;5056245;28;20127;-81
2022/07/02 03:15:44;;;;;;;3.80;2.17;;;;;;;22.12;36.76;101824.34;5063133;28;20080;-81
2022/07/02 03:18:11;;;;;;;3.17;1.95;;;;;;;22.09;36.41;101822.72;5045862;28;20053;-81
2022/07/02 03:20:38;;;;;;;3.70;2.30;;;;;;;22.08;36.48;101817.34;5044956;28;20056;-80
2022/07/02 03:23:04;;;;;;;3.60;1.95;;;;;;;22.06;36.94;101822.19;5051116;28;20525;-80
2022/07/02 03:25:31;;;;;;;3.10;2.05;;;;;;;22.03;36.89;101826.13;5052511;28;20076;-80
2022/07/02 03:27:58;;;;;;;3.35;2.10;;;;;;;22.01;36.55;101823.50;5052184;28;20077;-80
2022/07/02 03:30:24;;;;;;;3.47;1.85;;;;;;;21.99;36.92;101832.97;5049073;28;20127;-80
2022/07/02 03:32:51;;;;;;;3.67;1.98;;;;;;;21.98;37.13;101831.25;5065009;28;20077;-81
2022/07/02 03:35:18;;;;;;;2.72;2.00;;;;;;;21.97;37.01;101829.50;5049892;28;20083;-80
2022/07/02 03:37:44;;;;;;;3.90;2.17;;;;;;;21.96;37.09;101828.59;5055849;28;20139;-81
2022/07/02 03:40:11;;;;;;;3.30;1.70;;;;;;;21.96;36.73;101834.13;5058928;28;20072;-80
2022/07/02 03:42:37;;;;;;;3.80;1.85;;;;;;;21.95;37.02;101828.75;5058302;28;20079;-80
2022/07/02 03:45:05;;;;;;;3.30;1.90;;;;;;;21.95;36.85;101829.63;5058961;28;20044;-80
2022/07/02 03:47:31;;;;;;;3.38;1.85;;;;;;;21.93;36.87;101826.13;5056012;28;20166;-81
2022/07/02 03:49:58;;;;;;;2.40;1.60;;;;;;;21.93;36.77;101828.91;5057187;28;20069;-80
2022/07/02 03:52:24;;;;;;;3.95;2.15;;;;;;;21.93;36.90;101819.72;5045290;28;20048;-80
2022/07/02 03:54:54;;;;;;;3.95;2.25;;;;;;;21.94;37.11;101822.34;5051903;28;20045;-80
2022/07/02 03:57:21;;;;;;;3.97;1.83;;;;;;;21.91;36.87;101827.28;5043863;28;20098;-80
2022/07/02 03:59:47;;;;;;;3.40;2.00;;;;;;;21.89;36.86;101821.94;5064087;28;20545;-80
2022/07/02 04:02:14;;;;;;;4.47;1.92;;;;;;;21.89;37.12;101834.91;5051798;28;20087;-81
2022/07/02 04:04:41;;;;;;;3.17;1.88;;;;;;;21.87;37.24;101831.41;5052385;28;20045;-81
2022/07/02 04:07:08;;;;;;;2.75;1.75;;;;;;;21.86;37.40;101832.44;5054155;28;20506;-81
2022/07/02 04:09:35;;;;;;;3.33;1.83;;;;;;;21.85;37.22;101833.44;5003375;28;20104;-80
2022/07/02 04:12:02;;;;;;;5.05;1.80;;;;;;;21.82;37.06;101831.88;5045906;28;20078;-80
2022/07/02 04:14:28;;;;;;;4.45;2.25;;;;;;;21.82;37.39;101833.78;5062797;28;20079;-80
2022/07/02 04:16:55;;;;;;;3.80;1.90;;;;;;;21.80;37.01;101833.03;5046676;28;20083;-81
2022/07/02 04:19:21;;;;;;;2.92;2.00;;;;;;;21.78;37.27;101837.84;5050511;28;20049;-80
2022/07/02 04:21:48;;;;;;;3.92;1.80;;;;;;;21.76;37.55;101832.47;5045930;28;20068;-81
2022/07/02 04:24:15;;;;;;;4.28;1.90;;;;;;;21.73;37.60;101832.78;5061921;28;20444;-80
2022/07/02 04:26:41;;;;;;;3.55;1.90;;;;;;;21.72;37.75;101830.16;5052282;28;20084;-80
2022/07/02 04:29:08;;;;;;;2.97;1.67;;;;;;;21.70;37.46;101830.31;5053384;28;20136;-81
2022/07/02 04:31:34;;;;;;;3.10;2.00;;;;;;;21.69;37.25;101835.97;5048542;28;20136;-81
2022/07/02 04:34:01;;;;;;;2.97;2.00;;;;;;;21.67;37.45;101840.78;5050385;28;20054;-80
2022/07/02 04:36:28;;;;;;;3.40;2.00;;;;;;;21.65;37.75;101843.72;5052228;28;20127;-81
2022/07/02 04:38:54;;;;;;;3.58;1.90;;;;;;;21.62;37.53;101836.59;5063360;28;20064;-80
2022/07/02 04:41:21;;;;;;;2.65;1.90;;;;;;;21.62;37.66;101835.72;5053531;28;20053;-80
2022/07/02 04:43:48;;;;;;;3.83;1.75;;;;;;;21.61;37.66;101837.59;5042130;28;20068;-80
2022/07/02 04:46:14;;;;;;;3.67;1.88;;;;;;;21.60;37.43;101835.88;5051648;28;20053;-80
2022/07/02 04:48:41;;;;;;;3.38;1.85;;;;;;;21.59;37.82;101836.00;5050390;28;20109;-80
2022/07/02 04:51:10;;;;;;;2.22;1.48;;;;;;;21.62;38.17;101835.72;5041920;28;20049;-80
2022/07/02 04:53:37;;;;;;;3.33;1.70;;;;;;;21.58;37.75;101832.38;5078813;28;20055;-80
2022/07/02 04:56:04;;;;;;;3.40;1.90;;;;;;;21.58;38.00;101832.38;5056796;28;20146;-81
2022/07/02 04:58:30;;;;;;;2.75;1.90;;;;;;;21.59;38.06;101844.28;5053612;28;20163;-81
2022/07/02 05:00:57;;;;;;;4.00;2.20;;;;;;;21.59;37.68;101847.06;5051764;28;20076;-80
2022/07/02 05:03:24;;;;;;;2.10;1.63;;;;;;;21.59;38.06;101845.16;5060782;28;20738;-80
2022/07/02 05:05:50;;;;;;;2.78;1.88;;;;;;;21.60;38.46;101846.91;5051097;28;20140;-81
2022/07/02 05:08:20;;;;;;;2.83;1.55;;;;;;;21.62;38.25;101844.88;5050512;28;20517;-81
2022/07/02 05:10:47;;;;;;;3.38;2.03;;;;;;;21.66;38.42;101836.31;5052699;28;20044;-81
2022/07/02 05:13:14;;;;;;;3.47;1.98;;;;;;;21.71;38.74;101833.94;5062395;28;20495;-80
2022/07/02 05:15:43;;;;;;;2.80;1.60;;;;;;;21.78;38.96;101838.72;5051794;28;20057;-81
2022/07/02 05:18:11;;;;;;;3.63;1.70;;;;;;;21.86;38.84;101836.06;5062933;28;20069;-81
2022/07/02 05:20:37;;;;;;;2.78;1.75;;;;;;;21.93;38.96;101836.31;5049876;28;20084;-82
2022/07/02 05:23:04;;;;;;;4.03;1.85;;;;;;;22.05;39.20;101826.84;5049225;28;20091;-81
2022/07/02 05:25:30;;;;;;;3.40;2.13;;;;;;;22.18;39.23;101832.88;5063523;28;20128;-82
2022/07/02 05:27:57;;;;;;;3.50;1.98;;;;;;;22.29;39.13;101829.91;5057019;28;20395;-81
2022/07/02 05:30:23;;;;;;;3.35;1.80;;;;;;;22.44;38.96;101834.91;5053304;28;20080;-81
2022/07/02 05:32:50;;;;;;;4.35;1.80;;;;;;;22.57;38.65;101838.16;5066091;28;20052;-81
2022/07/02 05:35:17;;;;;;;4.32;1.77;;;;;;;22.70;38.81;101836.78;5057110;28;20460;-82
2022/07/02 05:37:44;;;;;;;3.95;1.80;;;;;;;22.84;38.26;101846.44;5051316;28;20114;-81
2022/07/02 05:40:11;;;;;;;2.67;1.80;;;;;;;22.99;38.16;101844.84;5043399;28;20633;-81
2022/07/02 05:42:37;;;;;;;2.97;1.63;;;;;;;23.13;38.09;101846.22;5052439;28;20076;-81
2022/07/02 05:45:05;;;;;;;4.57;1.88;;;;;;;23.27;37.65;101850.28;5050345;28;20055;-81
2022/07/02 05:47:32;;;;;;;3.30;1.70;;;;;;;23.41;37.59;101847.81;5039419;28;20132;-81
2022/07/02 05:50:00;;;;;;;3.42;1.60;;;;;;;23.56;37.50;101852.78;5051651;28;20068;-82
2022/07/02 05:52:26;;;;;;;3.10;1.58;;;;;;;23.66;37.21;101856.31;5054252;28;20139;-81
2022/07/02 05:54:53;;;;;;;2.38;1.63;;;;;;;23.78;37.41;101861.44;5054864;28;20454;-81
2022/07/02 05:57:19;;;;;;;3.42;2.00;;;;;;;23.89;36.82;101855.59;5050416;28;20128;-82
2022/07/02 05:59:46;;;;;;;3.83;1.67;;;;;;;24.02;36.99;101855.16;5053824;28;20049;-81
2022/07/02 06:02:13;;;;;;;2.78;1.40;;;;;;;24.12;36.61;101852.25;5060056;28;20084;-81
2022/07/02 06:04:39;;;;;;;4.10;1.90;;;;;;;24.22;36.18;101851.09;5072669;28;20468;-81
2022/07/02 06:09:52;;;;;;;4.43;1.98;;;;;;;24.41;36.05;101861.06;5044455;28;20037;-82
2022/07/02 06:12:19;;;;;;;3.05;1.58;;;;;;;24.49;35.98;101865.78;5053748;28;20049;-82
2022/07/02 06:14:46;;;;;;;3.15;1.70;;;;;;;24.57;35.82;101863.03;5051684;28;20381;-81
2022/07/02 06:17:13;;;;;;;3.92;1.70;;;;;;;24.65;36.15;101869.47;5052517;28;20083;-81
2022/07/02 06:19:47;;;;;;;2.63;1.77;;;;;;;24.78;35.36;101871.78;5066971;28;20102;-82
2022/07/02 06:22:14;;;;;;;2.95;1.65;;;;;;;24.83;35.37;101872.13;5066856;28;20052;-81
2022/07/02 06:24:41;;;;;;;3.95;2.00;;;;;;;24.90;35.15;101878.72;5059033;28;20140;-80
2022/07/02 06:27:08;;;;;;;4.05;1.70;;;;;;;24.99;35.37;101868.53;5055842;28;20087;-81
2022/07/02 06:29:35;;;;;;;4.28;1.90;;;;;;;25.04;34.68;101876.38;5053879;28;20812;-80
2022/07/02 06:32:02;;;;;;;2.60;1.50;;;;;;;25.10;34.68;101875.69;5059603;28;20091;-81
2022/07/02 06:34:28;;;;;;;4.18;1.88;;;;;;;25.15;34.92;101882.44;5058174;28;20063;-81
2022/07/02 06:36:55;;;;;;;3.20;1.60;;;;;;;25.19;34.63;101878.28;5050405;28;20466;-82
2022/07/02 06:39:25;;;;;;;4.57;1.98;;;;;;;25.24;34.60;101884.19;5071205;28;20072;-83
2022/07/02 06:44:37;;;;;;;3.92;1.70;;;;;;;25.34;34.47;101876.56;5041428;28;20076;-82
2022/07/02 06:47:04;;;;;;;3.35;1.70;;;;;;;25.40;34.45;101877.75;5068912;28;20052;-82
2022/07/02 06:49:31;;;;;;;2.78;1.50;;;;;;;25.46;34.15;101873.41;5059661;28;20080;-82
2022/07/02 06:51:58;;;;;;;4.50;1.50;;;;;;;25.53;34.33;101868.91;5053330;28;20072;-82
2022/07/02 06:54:27;;;;;;;3.28;1.23;;;;;;;25.64;33.63;101871.34;5052283;28;20060;-82
2022/07/02 06:56:54;;;;;;;2.30;1.30;;;;;;;25.69;34.03;101868.91;5067853;28;20068;-81
2022/07/02 06:59:21;;;;;;;2.30;1.30;;;;;;;25.78;33.77;101871.47;5052405;28;20084;-81
2022/07/02 07:01:47;;;;;;;2.67;1.40;;;;;;;25.87;34.15;101875.09;5056516;28;20123;-81
2022/07/02 07:04:35;;;;;;;5.00;1.60;;;;;;;25.98;33.88;101874.75;5047062;28;20148;-76
2022/07/02 07:07:05;;;;;;;3.42;1.48;;;;;;;26.07;33.60;101872.81;5043314;28;20037;-76
2022/07/02 07:09:34;;;;;;;2.38;1.25;;;;;;;26.15;33.21;101870.00;5045706;28;20053;-76
2022/07/02 07:12:04;;;;;;;2.58;1.50;;;;;;;26.21;32.92;101874.81;5046412;28;20411;-76
2022/07/02 07:14:32;;;;;;;3.08;1.38;;;;;;;26.25;32.82;101865.09;5055457;28;20450;-76
2022/07/02 07:16:59;;;;;;;2.95;1.10;;;;;;;26.31;32.99;101852.38;5048269;28;20037;-76
2022/07/02 07:19:26;;;;;;;2.45;1.10;;;;;;;26.37;33.07;101858.09;5056659;28;20107;-76
2022/07/02 07:21:52;;;;;;;2.92;1.40;;;;;;;26.41;33.01;101859.47;5049685;28;20053;-76
2022/07/02 07:24:19;;;;;;;2.58;1.30;;;;;;;26.48;33.15;101862.38;5049052;28;20060;-75
2022/07/02 07:26:46;;;;;;;2.88;1.33;;;;;;;26.53;32.34;101855.22;5049979;28;20076;-75
2022/07/02 07:29:12;;;;;;;2.95;1.05;;;;;;;26.59;32.35;101861.13;5049926;28;20379;-76
2022/07/02 07:31:41;;;;;;;4.47;1.20;;;;;;;26.65;32.55;101855.69;5049914;28;20069;-75
2022/07/02 07:34:09;;;;;;;2.83;1.30;;;;;;;26.74;32.11;101862.94;5047780;28;20045;-76
2022/07/02 07:36:36;;;;;;;3.10;0.98;;;;;;;26.81;32.22;101854.72;5050482;28;20045;-76
2022/07/02 07:39:03;;;;;;;3.08;1.08;;;;;;;26.89;31.72;101847.16;5038776;28;20499;-75
2022/07/02 07:41:30;;;;;;;3.70;1.30;;;;;;;26.97;31.81;101845.41;5053534;28;20956;-75
2022/07/02 07:43:57;;;;;;;1.83;1.10;;;;;;;27.04;31.84;101852.81;5047201;28;20037;-74
2022/07/02 07:46:24;;;;;;;2.03;1.10;;;;;;;27.10;31.62;101854.84;5045327;28;20064;-75
2022/07/02 07:48:51;;;;;;;3.85;1.20;;;;;;;27.18;31.69;101851.13;5049528;28;20526;-75
2022/07/02 07:51:18;;;;;;;3.20;1.02;;;;;;;27.24;31.19;101851.28;5047367;28;20084;-75
2022/07/02 07:53:45;;;;;;;2.22;1.00;;;;;;;27.34;31.39;101852.94;5051044;28;20040;-75
2022/07/02 07:56:18;;;;;;;1.67;0.90;;;;;;;27.42;31.13;101856.53;5051569;28;20133;-73
2022/07/02 07:58:46;;;;;;;2.33;1.10;;;;;;;27.49;31.30;101849.13;5049804;28;20044;-76
2022/07/02 08:01:13;;;;;;;1.75;0.90;;;;;;;27.59;31.00;101854.47;5043472;28;20102;-76
2022/07/02 08:03:40;;;;;;;1.80;0.80;;;;;;;27.67;31.11;101857.19;5049624;28;20040;-77
2022/07/02 08:06:06;;;;;;;2.08;1.10;;;;;;;27.75;30.87;101854.31;5045294;28;20499;-76
2022/07/02 08:08:33;;;;;;;2.80;0.95;;;;;;;27.83;30.27;101853.34;5047059;28;20057;-74
2022/07/02 08:10:59;;;;;;;2.30;0.80;;;;;;;27.91;29.79;101856.91;5051336;28;20045;-75
2022/07/02 08:13:26;;;;;;;2.15;1.27;;;;;;;27.98;29.87;101857.88;5047261;28;20380;-75
2022/07/02 08:15:53;;;;;;;2.10;1.10;;;;;;;28.05;29.72;101852.38;5044789;28;20049;-75
2022/07/02 08:18:20;;;;;;;2.33;1.00;;;;;;;28.11;29.63;101854.41;5047482;28;20513;-75
2022/07/02 08:20:46;;;;;;;2.40;0.90;;;;;;;28.17;29.70;101856.44;5051341;28;20500;-75
2022/07/02 08:23:14;;;;;;;1.85;1.02;;;;;;;28.22;29.10;101853.09;5061934;28;20044;-73
2022/07/02 08:25:40;;;;;;;2.88;0.90;;;;;;;28.27;29.03;101859.81;5047908;28;20139;-75
2022/07/02 08:28:07;;;;;;;3.30;0.90;;;;;;;28.30;29.24;101851.06;5040723;28;20052;-76
2022/07/02 08:30:34;;;;;;;1.48;0.80;;;;;;;28.35;28.92;101853.25;5049419;28;20499;-75
2022/07/02 08:33:00;;;;;;;1.35;0.77;;;;;;;28.38;28.72;101836.97;5041039;28;20042;-75
2022/07/02 08:35:27;;;;;;;1.83;0.73;;;;;;;28.44;28.72;101834.47;5049855;28;20049;-75
2022/07/02 08:37:54;;;;;;;1.25;0.60;;;;;;;28.48;28.41;101836.69;5046277;28;20045;-75
2022/07/02 08:40:26;;;;;;;3.10;0.80;;;;;;;28.57;27.46;101843.03;5045270;28;20072;-75
2022/07/02 08:42:53;;;;;;;2.75;0.93;;;;;;;28.55;28.16;101828.38;5045398;28;20084;-76
2022/07/02 08:45:23;;;;;;;2.33;0.90;;;;;;;28.62;27.97;101832.97;5054627;28;20076;-76
2022/07/02 08:47:54;;;;;;;2.78;0.88;;;;;;;28.68;27.64;101839.69;5050720;28;20381;-76
2022/07/02 08:50:23;;;;;;;1.77;0.80;;;;;;;28.70;28.05;101834.78;5051980;28;20080;-75
2022/07/02 08:52:53;;;;;;;1.65;0.90;;;;;;;28.73;27.89;101834.41;5044077;28;20103;-75
2022/07/02 08:55:20;;;;;;;2.42;0.75;;;;;;;28.78;27.07;101829.09;5055651;28;20598;-75
2022/07/02 08:57:51;;;;;;;1.05;0.70;;;;;;;28.86;26.68;101836.50;5051424;28;20052;-75
2022/07/02 09:00:21;;;;;;;2.75;0.63;;;;;;;28.90;26.96;101824.72;5052540;28;20096;-75
2022/07/02 09:02:57;;;;;;;1.15;0.70;;;;;;;28.95;27.31;101824.97;5039615;28;20052;-75
2022/07/02 09:05:27;;;;;;;1.50;1.00;;;;;;;29.03;27.12;101824.84;5053355;28;20464;-75
2022/07/02 09:07:55;;;;;;;1.70;0.70;;;;;;;29.10;27.15;101828.56;5050670;28;20045;-75
2022/07/02 09:10:25;;;;;;;1.85;0.77;;;;;;;29.16;26.54;101826.88;5055829;28;20053;-75
2022/07/02 09:12:53;;;;;;;3.10;0.63;;;;;;;29.23;26.55;101821.38;5062055;28;20084;-74
2022/07/02 09:15:21;;;;;;;1.52;0.70;;;;;;;29.29;26.40;101817.78;5058135;28;20049;-74
2022/07/02 09:17:48;;;;;;;2.00;0.65;;;;;;;29.36;26.02;101818.72;5072257;28;20049;-76
2022/07/02 09:20:15;;;;;;;1.73;0.90;;;;;;;29.39;26.25;101818.31;5060325;28;20299;-75
2022/07/02 09:22:48;;;;;;;1.20;0.75;;;;;;;29.43;25.71;101812.09;5051108;28;20048;-76
2022/07/02 09:25:16;;;;;;;1.38;0.52;;;;;;;29.41;25.52;101803.03;5054351;28;20510;-76
2022/07/02 09:27:45;;;;;;;1.88;0.70;;;;;;;29.42;25.23;101801.97;5051628;28;20049;-76
2022/07/02 09:30:16;;;;;;;1.00;0.60;;;;;;;29.43;25.32;101806.50;5055926;28;20044;-76
2022/07/02 09:32:46;;;;;;;1.13;0.60;;;;;;;29.43;25.17;101808.44;5051130;28;20486;-77
2022/07/02 09:35:20;;;;;;;1.27;0.50;;;;;;;29.43;24.34;101806.50;5052764;28;20085;-76
2022/07/02 09:37:49;;;;;;;2.28;0.57;;;;;;;29.41;25.15;101822.63;5051666;28;20076;-76
2022/07/02 09:40:17;;;;;;;1.90;0.60;;;;;;;29.43;24.79;101806.50;5061171;28;20117;-77
2022/07/02 09:42:47;;;;;;;2.88;0.68;;;;;;;29.47;24.87;101810.66;5066341;28;20049;-77
2022/07/02 09:45:15;;;;;;;1.52;0.70;;;;;;;29.46;24.49;101796.84;5051162;28;20083;-76
2022/07/02 09:47:49;;;;;;;1.15;0.52;;;;;;;29.50;24.93;101804.63;5050252;28;20041;-76
2022/07/02 09:50:19;;;;;;;0.65;0.50;;;;;;;29.54;24.43;101795.84;5069097;28;20487;-77
2022/07/02 09:52:56;;;;;;;1.40;0.63;;;;;;;29.60;23.71;101797.81;5070349;28;20051;-77
2022/07/02 09:55:30;;;;;;;1.58;0.57;;;;;;;29.61;23.80;101792.00;5039119;28;20442;-77
2022/07/02 09:57:59;;;;;;;1.45;0.55;;;;;;;29.64;23.61;101791.59;5063532;28;20056;-77
2022/07/02 10:00:28;;;;;;;2.45;0.52;;;;;;;29.66;23.64;101791.38;5052779;28;20036;-77
2022/07/02 10:02:59;;;;;;;0.90;0.60;;;;;;;29.68;23.67;101794.84;5048962;28;20439;-77
2022/07/02 10:05:33;;;;;;;1.20;0.60;;;;;;;29.75;22.67;101791.00;5054995;28;20137;-77
2022/07/02 10:08:06;;;;;;;0.73;0.52;;;;;;;29.78;23.48;101782.22;5051292;28;20479;-77
2022/07/02 10:13:02;;;;;;;1.45;0.70;;;;;;;29.87;23.27;101794.13;5050046;28;20117;-75
2022/07/02 10:15:31;;;;;;;2.05;0.65;;;;;;;29.93;22.77;101772.81;5051306;28;20094;-75
2022/07/02 10:18:05;;;;;;;1.63;0.52;;;;;;;29.97;22.79;101763.84;5037218;28;20041;-75
2022/07/02 10:20:34;;;;;;;1.85;0.70;;;;;;;30.04;22.63;101761.94;5050462;28;20496;-75
2022/07/02 10:23:03;;;;;;;0.73;0.50;;;;;;;30.10;22.43;101751.81;5053364;28;20045;-75
2022/07/02 10:25:31;;;;;;;1.48;0.57;;;;;;;30.13;22.62;101759.81;5063797;28;20115;-75
2022/07/02 10:27:58;;;;;;;2.00;0.68;;;;;;;30.16;22.74;101754.63;5076004;28;20407;-76
2022/07/02 10:30:32;;;;;;;1.27;0.65;;;;;;;30.24;22.51;101756.38;5055547;28;20098;-76
2022/07/02 10:33:28;;;;;;;2.03;0.70;;;;;;;30.29;21.74;101762.25;5057379;28;20045;-76
2022/07/02 10:35:55;;;;;;;1.55;0.68;;;;;;;30.29;22.42;101751.03;5026802;28;20079;-75
2022/07/02 10:38:35;;;;;;;0.75;0.60;;;;;;;30.37;21.19;101736.84;5038133;28;20132;-77
2022/07/02 10:41:02;;;;;;;3.70;0.77;;;;;;;30.37;22.31;101735.97;5044867;28;20129;-75
2022/07/02 10:43:33;;;;;;;0.98;0.60;;;;;;;30.44;21.87;101731.25;5066448;28;20475;-75
2022/07/02 10:46:11;;;;;;;1.10;0.70;;;;;;;30.46;21.49;101734.69;5064203;28;20076;-75
2022/07/02 10:48:51;;;;;;;1.63;0.60;;;;;;;30.45;21.20;101728.22;5063534;28;20049;-76
2022/07/02 10:51:22;;;;;;;1.75;0.70;;;;;;;30.44;21.52;101726.50;5057651;28;20388;-76
2022/07/02 10:53:53;;;;;;;1.52;0.63;;;;;;;30.43;21.83;101715.50;5065120;28;20041;-76
2022/07/02 10:56:23;;;;;;;1.33;0.70;;;;;;;30.42;21.05;101724.97;5043688;28;20497;-77
2022/07/02 10:58:50;;;;;;;1.02;0.73;;;;;;;30.37;21.62;101716.34;5056268;28;20131;-76
2022/07/02 11:01:22;;;;;;;0.52;0.40;;;;;;;30.35;21.41;101719.38;5059191;28;20086;-76
2022/07/02 11:04:02;;;;;;;1.33;0.70;;;;;;;30.34;21.22;101708.38;5068725;28;20102;-76
2022/07/02 11:06:33;;;;;;;1.02;0.70;;;;;;;30.30;20.84;101719.16;5067069;28;20533;-76
2022/07/02 11:09:04;;;;;;;1.20;0.63;;;;;;;30.27;21.68;101708.34;5043390;28;20045;-76
2022/07/02 11:11:36;;;;;;;2.23;0.87;;;;;;;30.26;21.57;101695.41;5054255;28;20136;-77
2022/07/02 11:14:10;;;;;;;1.15;0.50;;;;;;;30.27;21.08;101692.41;5052520;28;20092;-74
2022/07/02 11:16:38;;;;;;;1.80;0.70;;;;;;;30.25;21.80;101702.94;5053671;28;20128;-74
2022/07/02 11:19:11;;;;;;;1.52;0.50;;;;;;;30.29;21.96;101699.75;5063704;28;20045;-76
2022/07/02 11:21:40;;;;;;;1.35;0.60;;;;;;;30.31;22.06;101712.44;5062656;28;20160;-76
2022/07/02 11:24:07;;;;;;;0.50;0.50;;;;;;;30.33;22.01;101709.44;5066162;28;20473;-76
2022/07/02 11:26:34;;;;;;;1.48;0.60;;;;;;;30.34;21.94;101699.97;5062901;28;20107;-75
2022/07/02 11:29:05;;;;;;;1.02;0.60;;;;;;;30.40;22.01;101696.28;5056092;28;20060;-76
2022/07/02 11:31:36;;;;;;;1.15;0.70;;;;;;;30.42;22.15;101694.16;5059274;28;20044;-75
2022/07/02 11:34:03;;;;;;;1.15;0.57;;;;;;;30.39;22.22;101687.03;5071481;28;20461;-75
2022/07/02 11:36:29;;;;;;;1.23;0.70;;;;;;;30.45;21.66;101685.34;5069301;28;20045;-75